Spring Valley, Ohio
Current Conditions -  °F | °C
As of 4:46 AM on Monday 24 Nov 2014 (Local Time) from KMGY Reporting Station
Overcast Overcast  
Wind Chill: 59°   Ceiling: 1400
Heat Index: 59°   Visibility: 10mi
Dew Point: 55°   Wind: 13mph
Humidity: 87%   Direction: 200°SSW
Pressure: 29.32"   Gusts: 23mph
Location:  39.61°N, 84.01°W
Report Text: KMGY 240946Z AUTO 20011G20KT 10SM BKN014 OVC022 15/13 A2932 RMK AO2 T01500128
Loading
Personal Weather Stations






























Interactive Weather Map New forecast layout! Learn more

10-Day Weather Forecast

Advertisements
Track Severe Weather on mobile